createdAt,value
2019-01-17T00:02:01.899Z,100600.95
2019-01-17T00:04:35.935Z,100603.62
2019-01-17T00:07:10.473Z,100600.34
2019-01-17T00:09:44.428Z,100612.79
2019-01-17T00:12:19.443Z,100609.00
2019-01-17T00:14:53.580Z,100617.08
2019-01-17T00:17:27.849Z,100623.55
2019-01-17T00:22:06.379Z,100629.22
2019-01-17T00:25:40.323Z,100642.45
2019-01-17T00:28:16.406Z,100642.45
2019-01-17T00:30:52.340Z,100663.27
2019-01-17T00:34:27.362Z,100665.44
2019-01-17T00:37:13.420Z,100678.71
2019-01-17T00:39:46.532Z,100677.92
2019-01-17T00:42:20.798Z,100679.80
2019-01-17T00:45:01.971Z,100686.04
2019-01-17T00:47:36.512Z,100685.48
2019-01-17T00:52:14.327Z,100690.09
2019-01-17T00:56:55.226Z,100704.98
2019-01-17T00:59:35.595Z,100711.75
2019-01-17T01:03:08.624Z,100715.02
2019-01-17T01:05:42.748Z,100721.23
2019-01-17T01:08:28.962Z,100718.52
2019-01-17T01:11:35.384Z,100716.91
2019-01-17T01:15:14.802Z,100722.58
2019-01-17T01:17:50.782Z,100727.73
2019-01-17T01:20:24.716Z,100737.20
2019-01-17T01:25:05.957Z,100738.86
2019-01-17T01:27:40.084Z,100741.05
2019-01-17T01:30:16.808Z,100739.16
2019-01-17T01:32:54.906Z,100751.65
2019-01-17T01:37:32.514Z,100754.39
2019-01-17T01:40:12.578Z,100761.69
2019-01-17T01:42:46.679Z,100756.80
2019-01-17T01:45:26.759Z,100760.60
2019-01-17T01:51:15.035Z,100774.70
2019-01-17T01:53:44.148Z,100787.41
2019-01-17T01:56:13.167Z,100783.61
2019-01-17T01:58:42.262Z,100786.31
2019-01-17T02:01:11.255Z,100782.26
2019-01-17T02:03:40.329Z,100792.81
2019-01-17T02:06:09.666Z,100784.91
2019-01-17T02:08:38.727Z,100792.47
2019-01-17T02:11:07.870Z,100796.26
2019-01-17T02:13:36.934Z,100794.86
2019-01-17T02:16:06.340Z,100791.02
2019-01-17T02:18:35.364Z,100789.36
2019-01-17T02:21:04.466Z,100800.42
2019-01-17T02:23:33.545Z,100801.16
2019-01-17T02:26:02.596Z,100810.83
2019-01-17T02:28:31.735Z,100808.61
2019-01-17T02:31:00.824Z,100804.55
2019-01-17T02:33:29.853Z,100810.22
2019-01-17T02:35:58.934Z,100808.34
2019-01-17T02:38:28.640Z,100823.48
2019-01-17T02:40:57.830Z,100820.77
2019-01-17T02:43:26.937Z,100822.44
2019-01-17T02:45:56.014Z,100825.71
2019-01-17T02:48:25.967Z,100825.14
2019-01-17T02:50:55.027Z,100823.22
2019-01-17T02:53:24.027Z,100828.33
2019-01-17T02:55:53.372Z,100826.66
2019-01-17T02:58:22.480Z,100828.00
2019-01-17T03:00:51.517Z,100836.37
2019-01-17T03:03:21.537Z,100829.30
2019-01-17T03:05:50.577Z,100839.33
2019-01-17T03:08:19.618Z,100845.01
2019-01-17T03:10:48.705Z,100838.50
2019-01-17T03:13:17.727Z,100838.20
2019-01-17T03:15:46.780Z,100842.03
2019-01-17T03:18:15.902Z,100831.99
2019-01-17T03:20:45.003Z,100847.66
2019-01-17T03:23:14.011Z,100852.23
2019-01-17T03:25:43.097Z,100857.32
2019-01-17T03:28:12.737Z,100848.89
2019-01-17T03:30:41.805Z,100862.08
2019-01-17T03:33:11.072Z,100867.17
2019-01-17T03:35:40.156Z,100866.84
2019-01-17T03:38:09.189Z,100863.00
2019-01-17T03:40:38.178Z,100867.83
2019-01-17T03:43:08.086Z,100873.48
2019-01-17T03:45:37.089Z,100871.56
2019-01-17T03:48:06.120Z,100875.59
2019-01-17T03:50:35.169Z,100870.19
2019-01-17T03:53:04.281Z,100874.72
2019-01-17T03:55:33.416Z,100875.80
2019-01-17T03:58:02.598Z,100882.80
2019-01-17T04:00:31.678Z,100886.28
2019-01-17T04:03:00.695Z,100894.39
2019-01-17T04:05:29.702Z,100899.23
2019-01-17T04:07:58.739Z,100898.77
2019-01-17T04:10:27.808Z,100900.12
2019-01-17T04:12:56.819Z,100889.31
2019-01-17T04:15:25.958Z,100902.83
2019-01-17T04:17:55.044Z,100900.59
2019-01-17T04:20:24.099Z,100910.88
2019-01-17T04:22:53.226Z,100913.58
2019-01-17T04:25:22.315Z,100919.23
2019-01-17T04:27:51.384Z,100927.62
2019-01-17T04:30:20.554Z,100931.20
2019-01-17T04:32:49.775Z,100938.81
2019-01-17T04:35:18.852Z,100938.87
2019-01-17T04:37:47.961Z,100936.97
2019-01-17T04:40:17.050Z,100934.84
2019-01-17T04:42:48.500Z,100937.55
2019-01-17T04:45:17.553Z,100932.91
2019-01-17T04:47:46.719Z,100938.89
2019-01-17T04:50:16.114Z,100942.67
2019-01-17T04:52:45.187Z,100945.87
2019-01-17T04:55:14.613Z,100945.30
2019-01-17T04:57:43.751Z,100949.58
2019-01-17T05:00:17.600Z,100959.02
2019-01-17T05:02:46.696Z,100960.30
2019-01-17T05:05:15.840Z,100969.95
2019-01-17T05:07:44.927Z,100980.22
2019-01-17T05:10:14.409Z,100984.27
2019-01-17T05:12:44.340Z,100995.94
2019-01-17T05:15:13.839Z,100987.34
2019-01-17T05:17:42.850Z,100993.08
2019-01-17T05:20:14.254Z,100995.00
2019-01-17T05:22:43.384Z,101004.80
2019-01-17T05:25:13.097Z,101006.98
2019-01-17T05:27:41.723Z,101006.20
2019-01-17T05:30:13.584Z,101009.27
2019-01-17T05:32:42.593Z,101011.26
2019-01-17T05:35:11.659Z,101027.23
2019-01-17T05:37:40.682Z,101019.09
2019-01-17T05:40:12.628Z,101025.55
2019-01-17T05:42:42.287Z,101039.59
2019-01-17T05:45:11.387Z,101046.35
2019-01-17T05:47:41.088Z,101055.05
2019-01-17T05:50:11.727Z,101047.23
2019-01-17T05:52:40.809Z,101055.35
2019-01-17T05:55:10.016Z,101060.17
2019-01-17T05:57:39.080Z,101055.23
2019-01-17T06:03:09.016Z,101057.52
2019-01-17T06:05:38.595Z,101068.83
2019-01-17T06:08:07.769Z,101080.34
2019-01-17T06:10:37.181Z,101085.20
2019-01-17T06:13:06.343Z,101085.41
2019-01-17T06:15:36.371Z,101088.11
2019-01-17T06:18:05.430Z,101088.95
2019-01-17T06:20:34.654Z,101102.52
2019-01-17T06:23:04.907Z,101098.22
2019-01-17T06:25:34.227Z,101104.39
2019-01-17T06:28:03.842Z,101108.52
2019-01-17T06:30:32.982Z,101103.72
2019-01-17T06:33:02.117Z,101113.27
2019-01-17T06:35:31.170Z,101121.48
2019-01-17T06:38:00.245Z,101123.13
2019-01-17T06:40:31.626Z,101131.50
2019-01-17T06:43:00.700Z,101133.95
2019-01-17T06:45:29.799Z,101142.64
2019-01-17T06:47:58.992Z,101142.92
2019-01-17T06:50:28.080Z,101149.10
2019-01-17T06:52:57.170Z,101151.00
2019-01-17T06:55:26.933Z,101170.45
2019-01-17T06:57:56.017Z,101178.56
2019-01-17T07:00:25.129Z,101172.08
2019-01-17T07:02:54.219Z,101188.38
2019-01-17T07:05:23.250Z,101194.61
2019-01-17T07:07:52.841Z,101188.89
2019-01-17T07:10:25.194Z,101192.70
2019-01-17T07:12:54.390Z,101207.02
2019-01-17T07:15:23.448Z,101207.55
2019-01-17T07:17:53.164Z,101218.88
2019-01-17T07:20:26.308Z,101227.06
2019-01-17T07:22:55.376Z,101233.52
2019-01-17T07:25:25.136Z,101245.09
2019-01-17T07:27:54.183Z,101252.92
2019-01-17T07:30:24.804Z,101260.45
2019-01-17T07:32:53.890Z,101279.09
2019-01-17T07:35:23.822Z,101279.55
2019-01-17T07:37:53.502Z,101287.39
2019-01-17T07:40:22.621Z,101284.02
2019-01-17T07:42:51.699Z,101296.08
2019-01-17T07:45:24.518Z,101301.90
2019-01-17T07:47:53.803Z,101296.10
2019-01-17T07:50:22.857Z,101314.12
2019-01-17T07:52:53.627Z,101311.97
2019-01-17T07:55:22.750Z,101331.41
2019-01-17T07:57:53.159Z,101346.72
2019-01-17T08:00:23.288Z,101347.51
2019-01-17T08:02:52.880Z,101355.02
2019-01-17T08:05:23.667Z,101360.06
2019-01-17T08:07:53.877Z,101388.84
2019-01-17T08:10:22.988Z,101390.06
2019-01-17T08:12:52.067Z,101389.91
2019-01-17T08:15:21.962Z,101390.90
2019-01-17T08:17:51.735Z,101398.95
2019-01-17T08:20:23.219Z,101393.99
2019-01-17T08:22:52.314Z,101405.03
2019-01-17T08:25:21.741Z,101403.32
2019-01-17T08:27:51.543Z,101407.61
2019-01-17T08:32:57.588Z,101419.16
2019-01-17T08:35:28.609Z,101424.05
2019-01-17T08:37:57.737Z,101435.13
2019-01-17T08:40:30.827Z,101432.98
2019-01-17T08:43:01.111Z,101453.80
2019-01-17T08:45:30.853Z,101454.72
2019-01-17T08:48:00.559Z,101452.15
2019-01-17T08:50:29.918Z,101456.41
2019-01-17T08:52:58.967Z,101458.49
2019-01-17T08:55:28.112Z,101464.86
2019-01-17T08:57:57.682Z,101477.98
2019-01-17T09:00:26.914Z,101482.44
2019-01-17T09:02:56.009Z,101483.64
2019-01-17T09:05:26.051Z,101497.00
2019-01-17T09:07:55.572Z,101504.12
2019-01-17T09:10:27.353Z,101509.28
2019-01-17T09:12:57.310Z,101515.30
2019-01-17T09:15:32.753Z,101520.70
2019-01-17T09:18:01.895Z,101527.45
2019-01-17T09:20:32.112Z,101532.27
2019-01-17T09:23:01.411Z,101533.77
2019-01-17T09:25:30.566Z,101532.42
2019-01-17T09:27:59.702Z,101537.91
2019-01-17T09:30:28.865Z,101551.19
2019-01-17T09:32:58.080Z,101555.77
2019-01-17T09:35:27.427Z,101565.45
2019-01-17T09:38:00.862Z,101569.52
2019-01-17T09:40:29.889Z,101573.13
2019-01-17T09:42:58.968Z,101571.00
2019-01-17T09:45:28.008Z,101570.42
2019-01-17T09:47:57.912Z,101574.17
2019-01-17T09:50:32.418Z,101586.25
2019-01-17T09:53:01.627Z,101584.25
2019-01-17T09:55:30.699Z,101590.13
2019-01-17T09:58:00.418Z,101587.10
2019-01-17T10:00:31.363Z,101593.80
2019-01-17T10:03:00.520Z,101598.84
2019-01-17T10:05:30.064Z,101613.77
2019-01-17T10:07:59.736Z,101624.44
2019-01-17T10:10:29.445Z,101638.41
2019-01-17T10:12:59.412Z,101634.36
2019-01-17T10:15:37.485Z,101639.98
2019-01-17T10:21:22.220Z,101641.11
2019-01-17T10:34:49.828Z,101634.18
2019-01-17T10:41:43.049Z,101690.13
2019-01-17T10:44:23.365Z,101689.06
2019-01-17T10:47:07.721Z,101689.52
2019-01-17T10:54:47.896Z,101703.91
2019-01-17T10:57:27.734Z,101714.59
2019-01-17T11:10:15.132Z,101718.05
2019-01-17T11:12:55.082Z,101742.84
2019-01-17T11:15:39.452Z,101742.06
2019-01-17T11:19:21.931Z,101750.50
2019-01-17T11:22:15.137Z,101746.13
2019-01-17T11:25:00.219Z,101747.19
2019-01-17T11:27:44.212Z,101744.02
2019-01-17T11:30:23.501Z,101745.46
2019-01-17T11:33:14.162Z,101742.30
2019-01-17T11:36:02.405Z,101733.66
2019-01-17T11:38:42.075Z,101730.73
2019-01-17T11:41:25.672Z,101730.20
2019-01-17T11:46:11.892Z,101728.02
2019-01-17T11:50:23.449Z,101720.60
2019-01-17T11:53:16.434Z,101719.86
2019-01-17T11:56:01.012Z,101732.91
2019-01-17T11:59:13.096Z,101728.70
2019-01-17T12:02:03.652Z,101730.86
2019-01-17T12:04:43.531Z,101743.27
2019-01-17T12:07:17.449Z,101748.91
2019-01-17T12:09:48.810Z,101751.61
2019-01-17T12:12:22.216Z,101751.09
2019-01-17T12:14:51.868Z,101752.97
2019-01-17T12:17:23.504Z,101748.63
2019-01-17T12:19:52.595Z,101749.75
2019-01-17T12:22:22.076Z,101756.93
2019-01-17T12:24:51.245Z,101764.61
2019-01-17T12:27:21.621Z,101757.59
2019-01-17T12:29:51.183Z,101761.41
2019-01-17T12:32:21.270Z,101757.24
2019-01-17T12:34:50.453Z,101758.57
2019-01-17T12:37:19.687Z,101762.43
2019-01-17T12:39:48.845Z,101760.29
2019-01-17T12:42:17.946Z,101757.38
2019-01-17T12:44:49.934Z,101753.52
2019-01-17T12:47:19.150Z,101762.58
2019-01-17T12:49:49.251Z,101752.89
2019-01-17T12:52:18.678Z,101757.86
2019-01-17T12:54:48.518Z,101752.91
2019-01-17T12:57:19.148Z,101748.02
2019-01-17T12:59:48.246Z,101731.94
2019-01-17T13:02:18.190Z,101733.76
2019-01-17T13:04:47.934Z,101741.28
2019-01-17T13:07:17.819Z,101731.20
2019-01-17T13:09:46.996Z,101736.85
2019-01-17T13:12:18.243Z,101737.37
2019-01-17T13:14:50.675Z,101741.98
2019-01-17T13:17:21.776Z,101740.54
2019-01-17T13:19:53.124Z,101753.78
2019-01-17T13:22:27.771Z,101751.31
2019-01-17T13:24:57.128Z,101761.30
2019-01-17T13:27:26.648Z,101753.55
2019-01-17T13:29:57.842Z,101754.67
2019-01-17T13:32:32.590Z,101749.86
2019-01-17T13:35:01.736Z,101752.65
2019-01-17T13:37:30.867Z,101750.46
2019-01-17T13:40:00.212Z,101745.57
2019-01-17T13:42:30.126Z,101748.19
2019-01-17T13:44:59.256Z,101746.84
2019-01-17T13:47:28.320Z,101739.32
2019-01-17T13:49:57.663Z,101742.39
2019-01-17T13:52:29.784Z,101740.38
2019-01-17T13:54:59.291Z,101738.03
2019-01-17T13:57:32.360Z,101739.47
2019-01-17T14:00:04.114Z,101748.47
2019-01-17T14:02:34.387Z,101739.59
2019-01-17T14:05:04.186Z,101734.78
2019-01-17T14:07:34.902Z,101742.91
2019-01-17T14:10:06.666Z,101743.89
2019-01-17T14:12:34.600Z,101736.21
2019-01-17T14:15:06.359Z,101742.45
2019-01-17T14:17:36.495Z,101747.03
2019-01-17T14:20:08.761Z,101748.94
2019-01-17T14:22:44.845Z,101755.02
2019-01-17T14:25:15.618Z,101752.78
2019-01-17T14:27:45.934Z,101763.84
2019-01-17T14:30:19.254Z,101763.53
2019-01-17T14:32:51.825Z,101752.70
2019-01-17T14:35:21.029Z,101752.41
2019-01-17T14:37:51.554Z,101749.95
2019-01-17T14:40:21.394Z,101754.00
2019-01-17T14:43:06.765Z,101749.71
2019-01-17T14:45:36.322Z,101757.28
2019-01-17T14:48:05.614Z,101761.05
2019-01-17T14:50:34.690Z,101754.52
2019-01-17T14:53:03.830Z,101759.33
2019-01-17T14:55:34.640Z,101756.63
2019-01-17T14:58:03.973Z,101765.78
2019-01-17T15:00:34.388Z,101763.86
2019-01-17T15:03:04.576Z,101766.56
2019-01-17T15:05:33.899Z,101767.08
2019-01-17T15:08:03.166Z,101770.30
2019-01-17T15:10:36.459Z,101780.52
2019-01-17T15:13:06.601Z,101790.74
2019-01-17T15:15:35.778Z,101796.16
2019-01-17T15:18:06.867Z,101801.28
2019-01-17T15:20:37.617Z,101798.29
2019-01-17T15:23:08.434Z,101785.51
2019-01-17T15:25:37.832Z,101786.02
2019-01-17T15:28:08.855Z,101792.27
2019-01-17T15:30:38.956Z,101802.48
2019-01-17T15:33:08.668Z,101801.88
2019-01-17T15:35:38.084Z,101809.91
2019-01-17T15:38:07.514Z,101809.11
2019-01-17T15:40:36.742Z,101806.09
2019-01-17T15:43:07.890Z,101805.57
2019-01-17T15:45:35.834Z,101807.90
2019-01-17T15:48:05.281Z,101807.81
2019-01-17T15:50:35.928Z,101802.86
2019-01-17T15:53:05.176Z,101812.24
2019-01-17T15:55:34.836Z,101816.53
2019-01-17T15:58:05.032Z,101828.09
2019-01-17T16:00:34.531Z,101833.87
2019-01-17T16:03:04.512Z,101832.69
2019-01-17T16:05:34.668Z,101833.43
2019-01-17T16:08:03.771Z,101841.97
2019-01-17T16:10:34.068Z,101854.59
2019-01-17T16:13:03.308Z,101860.45
2019-01-17T16:15:32.995Z,101850.89
2019-01-17T16:18:03.122Z,101846.45
2019-01-17T16:20:32.439Z,101843.89
2019-01-17T16:23:03.537Z,101852.73
2019-01-17T16:28:32.057Z,101858.05
2019-01-17T16:31:02.210Z,101864.55
2019-01-17T16:33:31.349Z,101868.73
2019-01-17T16:36:00.451Z,101865.87
2019-01-17T16:38:29.597Z,101869.30
2019-01-17T16:40:59.839Z,101878.47
2019-01-17T16:43:29.700Z,101880.05
2019-01-17T16:46:03.804Z,101871.84
2019-01-17T16:48:33.786Z,101871.67
2019-01-17T16:51:04.228Z,101868.39
2019-01-17T16:53:34.532Z,101872.61
2019-01-17T16:56:10.717Z,101880.05
2019-01-17T16:58:43.790Z,101877.91
2019-01-17T17:01:20.332Z,101878.17
2019-01-17T17:04:17.727Z,101878.98
2019-01-17T17:08:21.180Z,101879.77
2019-01-17T17:10:58.536Z,101882.91
2019-01-17T17:13:32.967Z,101877.55
2019-01-17T17:16:12.428Z,101880.68
2019-01-17T17:18:42.627Z,101877.98
2019-01-17T17:21:11.875Z,101885.89
2019-01-17T17:23:41.194Z,101898.97
2019-01-17T17:26:11.516Z,101895.88
2019-01-17T17:28:41.144Z,101894.95
2019-01-17T17:31:10.972Z,101898.83
2019-01-17T17:33:40.945Z,101905.66
2019-01-17T17:36:10.650Z,101908.80
2019-01-17T17:38:40.295Z,101918.54
2019-01-17T17:41:09.864Z,101918.13
2019-01-17T17:43:39.078Z,101917.50
2019-01-17T17:46:09.479Z,101905.48
2019-01-17T17:48:39.011Z,101911.50
2019-01-17T17:51:08.840Z,101919.47
2019-01-17T17:53:42.690Z,101922.47
2019-01-17T17:56:18.079Z,101915.73
2019-01-17T18:07:09.769Z,101917.15
2019-01-17T18:09:39.269Z,101924.27
2019-01-17T18:12:09.086Z,101921.27
2019-01-17T18:14:38.484Z,101924.98
2019-01-17T18:17:07.986Z,101930.70
2019-01-17T18:19:37.683Z,101941.05
2019-01-17T18:22:07.518Z,101942.39
2019-01-17T18:24:37.910Z,101940.34
2019-01-17T18:27:07.191Z,101938.19
2019-01-17T18:29:36.316Z,101940.46
2019-01-17T18:32:06.621Z,101941.27
2019-01-17T18:34:35.872Z,101937.22
2019-01-17T18:37:06.254Z,101934.82
2019-01-17T18:39:35.851Z,101948.70
2019-01-17T18:42:06.462Z,101954.58
2019-01-17T18:44:35.614Z,101952.59
2019-01-17T18:47:05.077Z,101947.93
2019-01-17T18:49:34.384Z,101949.69
2019-01-17T18:52:03.702Z,101953.09
2019-01-17T18:54:33.107Z,101948.94
2019-01-17T18:57:02.477Z,101954.02
2019-01-17T18:59:31.980Z,101952.84
2019-01-17T19:02:01.853Z,101947.74
2019-01-17T19:04:31.181Z,101943.69
2019-01-17T19:07:00.347Z,101954.96
2019-01-17T19:09:29.646Z,101961.81
2019-01-17T19:11:59.934Z,101955.92
2019-01-17T19:14:29.119Z,101957.07
2019-01-17T19:16:58.452Z,101956.66
2019-01-17T19:19:27.827Z,101952.13
2019-01-17T19:21:57.532Z,101946.58
2019-01-17T19:24:28.192Z,101946.17
2019-01-17T19:26:57.843Z,101957.27
2019-01-17T19:29:27.068Z,101961.30
2019-01-17T19:31:57.057Z,101963.08
2019-01-17T19:34:26.237Z,101950.05
2019-01-17T19:36:56.430Z,101948.36
2019-01-17T19:39:26.928Z,101964.22
2019-01-17T19:41:56.958Z,101962.23
2019-01-17T19:44:26.286Z,101958.91
2019-01-17T19:46:55.458Z,101959.55
2019-01-17T19:49:24.915Z,101947.84
2019-01-17T19:51:54.368Z,101955.29
2019-01-17T19:54:23.481Z,101945.24
2019-01-17T19:56:54.181Z,101951.03
2019-01-17T19:59:23.518Z,101952.77
2019-01-17T20:01:52.900Z,101955.64
2019-01-17T20:04:22.278Z,101945.87
2019-01-17T20:06:53.256Z,101953.11
2019-01-17T20:09:22.549Z,101946.72
2019-01-17T20:11:51.843Z,101956.84
2019-01-17T20:14:21.141Z,101950.75
2019-01-17T20:16:50.317Z,101963.80
2019-01-17T20:19:19.517Z,101955.80
2019-01-17T20:21:48.778Z,101953.11
2019-01-17T20:24:21.455Z,101951.26
2019-01-17T20:26:53.570Z,101947.31
2019-01-17T20:29:23.996Z,101946.72
2019-01-17T21:41:23.755Z,101920.66
2019-01-17T21:43:53.054Z,101929.03
2019-01-17T21:46:22.223Z,101920.12
2019-01-17T21:48:51.357Z,101920.76
2019-01-17T21:51:20.575Z,101925.05
2019-01-17T21:53:49.710Z,101920.27
2019-01-17T21:56:18.984Z,101917.06
2019-01-17T21:58:48.287Z,101918.61
2019-01-17T22:01:17.457Z,101919.75
2019-01-17T22:03:46.637Z,101924.41
2019-01-17T22:06:15.825Z,101928.12
2019-01-17T22:08:44.934Z,101928.45
2019-01-17T22:11:14.129Z,101923.07
2019-01-17T22:13:43.380Z,101927.91
2019-01-17T22:16:12.487Z,101937.16
2019-01-17T22:18:43.537Z,101942.70
2019-01-17T22:21:12.750Z,101936.11
2019-01-17T22:23:41.950Z,101932.58
2019-01-17T22:26:11.764Z,101923.58
2019-01-17T22:28:44.338Z,101924.41
2019-01-17T22:31:14.253Z,101930.38
2019-01-17T22:33:45.966Z,101932.97
2019-01-17T22:36:16.121Z,101918.05
2019-01-17T22:38:51.355Z,101916.35
2019-01-17T22:41:20.558Z,101918.38
2019-01-17T22:43:49.659Z,101919.80
2019-01-17T22:46:18.783Z,101919.80
2019-01-17T22:48:47.892Z,101921.28
2019-01-17T22:51:17.156Z,101919.23
2019-01-17T22:53:46.283Z,101924.61
2019-01-17T22:56:15.436Z,101914.55
2019-01-17T23:10:16.810Z,101894.89
2019-01-17T23:12:45.928Z,101898.09
2019-01-17T23:15:15.717Z,101896.03
2019-01-17T23:17:45.407Z,101893.57
2019-01-17T23:20:14.616Z,101892.48
2019-01-17T23:22:43.699Z,101890.02
2019-01-17T23:25:12.730Z,101886.41
2019-01-17T23:27:42.324Z,101886.63
2019-01-17T23:30:11.689Z,101878.14
2019-01-17T23:32:40.826Z,101873.94
2019-01-17T23:35:10.635Z,101871.95
2019-01-17T23:37:39.751Z,101880.33
2019-01-17T23:40:09.055Z,101871.34
2019-01-17T23:42:38.135Z,101865.38
2019-01-17T23:45:07.447Z,101872.73
2019-01-17T23:47:36.731Z,101862.98
2019-01-17T23:50:06.560Z,101859.58
2019-01-17T23:52:35.840Z,101851.00
2019-01-17T23:55:05.547Z,101844.36
2019-01-17T23:57:34.899Z,101835.69
